createdAt,value
2023-05-06T00:00:52.850Z,17.90
2023-05-06T00:03:20.926Z,17.80
2023-05-06T00:05:49.262Z,20.53
2023-05-06T00:08:17.211Z,21.60
2023-05-06T00:10:45.191Z,16.37
2023-05-06T00:13:13.168Z,19.03
2023-05-06T00:15:42.503Z,25.90
2023-05-06T00:18:10.470Z,19.33
2023-05-06T00:20:38.438Z,18.43
2023-05-06T00:23:06.382Z,26.87
2023-05-06T00:25:34.320Z,17.90
2023-05-06T00:28:02.220Z,16.47
2023-05-06T00:30:31.301Z,20.07
2023-05-06T00:33:00.758Z,14.70
2023-05-06T00:35:28.756Z,13.20
2023-05-06T00:37:57.970Z,19.23
2023-05-06T00:40:26.029Z,19.67
2023-05-06T00:42:53.967Z,25.00
2023-05-06T00:45:21.894Z,23.83
2023-05-06T00:47:49.837Z,14.73
2023-05-06T00:50:19.341Z,20.97
2023-05-06T00:52:47.234Z,19.93
2023-05-06T00:55:15.490Z,19.53
2023-05-06T00:57:43.438Z,16.73
2023-05-06T01:00:12.599Z,13.10
2023-05-06T01:02:47.010Z,16.37
2023-05-06T01:05:16.070Z,14.10
2023-05-06T01:07:47.691Z,14.47
2023-05-06T01:10:20.469Z,14.90
2023-05-06T01:12:51.664Z,11.80
2023-05-06T01:15:22.898Z,12.03
2023-05-06T01:17:51.398Z,11.80
2023-05-06T01:20:21.090Z,8.90
2023-05-06T01:22:50.733Z,17.27
2023-05-06T01:25:23.653Z,11.07
2023-05-06T01:27:51.597Z,12.97
2023-05-06T01:30:19.853Z,10.90
2023-05-06T01:32:54.866Z,10.97
2023-05-06T01:35:37.141Z,8.33
2023-05-06T01:38:08.321Z,14.87
2023-05-06T01:40:37.642Z,9.77
2023-05-06T01:43:06.140Z,12.17
2023-05-06T01:45:35.276Z,13.90
2023-05-06T01:48:03.283Z,24.63
2023-05-06T01:50:31.299Z,13.03
2023-05-06T01:53:00.136Z,10.53
2023-05-06T01:55:28.170Z,12.50
2023-05-06T01:57:57.685Z,17.30
2023-05-06T02:00:26.435Z,13.77
2023-05-06T02:02:54.578Z,12.03
2023-05-06T02:05:22.576Z,13.17
2023-05-06T02:07:50.526Z,12.47
2023-05-06T02:10:19.224Z,18.63
2023-05-06T02:12:47.285Z,14.37
2023-05-06T02:15:16.852Z,15.07
2023-05-06T02:17:44.835Z,20.63
2023-05-06T02:20:12.919Z,18.27
2023-05-06T02:22:40.866Z,45.87
2023-05-06T02:25:10.082Z,13.07
2023-05-06T02:27:38.256Z,16.20
2023-05-06T02:30:07.465Z,19.43
2023-05-06T02:32:37.211Z,18.30
2023-05-06T02:35:05.856Z,24.33
2023-05-06T02:37:33.761Z,20.53
2023-05-06T02:40:01.740Z,18.23
2023-05-06T02:42:29.621Z,23.20
2023-05-06T02:44:57.603Z,24.53
2023-05-06T02:47:25.604Z,18.10
2023-05-06T02:49:54.900Z,15.37
2023-05-06T02:52:22.854Z,22.77
2023-05-06T02:54:51.023Z,23.20
2023-05-06T02:57:18.929Z,21.33
2023-05-06T02:59:46.910Z,26.80
2023-05-06T03:02:14.844Z,19.80
2023-05-06T03:04:42.934Z,30.23
2023-05-06T03:07:12.683Z,18.83
2023-05-06T03:09:40.713Z,26.47
2023-05-06T03:12:08.624Z,19.90
2023-05-06T03:14:36.540Z,23.63
2023-05-06T03:17:04.636Z,24.73
2023-05-06T03:19:32.533Z,21.23
2023-05-06T03:22:00.464Z,21.23
2023-05-06T03:24:29.787Z,41.73
2023-05-06T03:26:58.531Z,20.77
2023-05-06T03:29:26.499Z,16.37
2023-05-06T03:31:56.753Z,25.27
2023-05-06T03:34:24.771Z,26.37
2023-05-06T03:36:52.673Z,19.27
2023-05-06T03:39:20.639Z,23.63
2023-05-06T03:41:49.900Z,21.90
2023-05-06T03:44:17.936Z,24.73
2023-05-06T03:46:45.896Z,23.30
2023-05-06T03:49:13.904Z,26.63
2023-05-06T03:51:41.788Z,29.90
2023-05-06T03:54:09.765Z,26.40
2023-05-06T03:56:37.690Z,25.10
2023-05-06T03:59:06.966Z,19.73
2023-05-06T04:01:35.385Z,20.80
2023-05-06T04:04:03.354Z,27.93
2023-05-06T04:06:31.335Z,24.40
2023-05-06T04:08:59.246Z,21.00
2023-05-06T04:11:29.583Z,27.00
2023-05-06T04:13:57.758Z,22.83
2023-05-06T04:16:27.103Z,20.93
2023-05-06T04:18:55.441Z,21.33
2023-05-06T04:21:23.411Z,18.67
2023-05-06T04:23:51.389Z,25.00
2023-05-06T04:26:19.370Z,40.83
2023-05-06T04:28:47.308Z,19.40
2023-05-06T04:31:15.627Z,18.50
2023-05-06T04:33:44.946Z,15.80
2023-05-06T04:36:13.028Z,13.00
2023-05-06T04:38:40.962Z,11.57
2023-05-06T04:41:13.778Z,11.27
2023-05-06T04:43:44.572Z,10.63
2023-05-06T04:46:22.051Z,11.60
2023-05-06T04:49:01.315Z,13.60
2023-05-06T04:51:32.328Z,11.20
2023-05-06T04:54:06.284Z,12.73
2023-05-06T04:56:42.299Z,13.47
2023-05-06T04:59:12.271Z,11.43
2023-05-06T05:01:40.611Z,15.87
2023-05-06T05:04:13.113Z,12.10
2023-05-06T05:06:44.242Z,10.63
2023-05-06T05:09:14.081Z,8.70
2023-05-06T05:11:43.240Z,10.73
2023-05-06T05:14:15.554Z,10.47
2023-05-06T05:16:47.542Z,8.10
2023-05-06T05:19:21.619Z,11.40
2023-05-06T05:21:49.853Z,10.77
2023-05-06T05:24:18.057Z,15.03
2023-05-06T05:26:53.056Z,10.57
2023-05-06T05:29:21.019Z,14.47
2023-05-06T05:31:56.673Z,11.03
2023-05-06T05:34:28.016Z,11.40
2023-05-06T05:36:59.854Z,6.87
2023-05-06T05:39:29.934Z,7.23
2023-05-06T05:42:03.756Z,6.80
2023-05-06T05:44:33.470Z,7.97
2023-05-06T05:47:05.703Z,7.57
2023-05-06T05:49:36.801Z,8.77
2023-05-06T05:52:09.915Z,5.47
2023-05-06T05:54:42.097Z,5.60
2023-05-06T05:57:13.934Z,9.10
2023-05-06T05:59:43.644Z,10.13
2023-05-06T06:02:14.626Z,7.97
2023-05-06T06:04:44.385Z,11.13
2023-05-06T06:07:16.418Z,5.00
2023-05-06T06:09:49.105Z,7.90
2023-05-06T06:12:18.127Z,9.10
2023-05-06T06:14:48.862Z,8.10
2023-05-06T06:17:19.223Z,6.83
2023-05-06T06:19:51.525Z,8.17
2023-05-06T06:22:22.241Z,5.60
2023-05-06T06:24:53.860Z,12.87
2023-05-06T06:27:24.536Z,6.03
2023-05-06T06:30:03.138Z,5.73
2023-05-06T06:32:33.515Z,8.30
2023-05-06T06:35:04.227Z,8.73
2023-05-06T06:37:34.955Z,9.00
2023-05-06T06:40:18.533Z,5.83
2023-05-06T06:42:51.653Z,7.13
2023-05-06T06:45:29.689Z,8.63
2023-05-06T06:48:03.611Z,17.13
2023-05-06T06:50:40.648Z,12.13
2023-05-06T06:53:12.883Z,5.90
2023-05-06T06:55:47.434Z,8.03
2023-05-06T06:58:23.909Z,6.07
2023-05-06T07:00:51.900Z,8.27
2023-05-06T07:03:27.544Z,8.10
2023-05-06T07:05:58.215Z,11.30
2023-05-06T07:08:26.412Z,11.00
2023-05-06T07:10:56.686Z,6.13
2023-05-06T07:13:27.722Z,5.83
2023-05-06T07:16:05.838Z,6.63
2023-05-06T07:18:37.680Z,5.80
2023-05-06T07:21:09.690Z,4.83
2023-05-06T07:23:37.706Z,7.67
2023-05-06T07:26:07.836Z,10.60
2023-05-06T07:28:40.899Z,4.43
2023-05-06T07:31:13.012Z,6.40
2023-05-06T07:33:41.196Z,4.70
2023-05-06T07:36:16.948Z,10.60
2023-05-06T07:38:47.668Z,5.13
2023-05-06T07:41:20.028Z,6.03
2023-05-06T07:43:48.113Z,6.63
2023-05-06T07:46:20.280Z,9.57
2023-05-06T07:48:50.527Z,4.90
2023-05-06T07:51:19.911Z,7.37
2023-05-06T07:53:59.049Z,5.20
2023-05-06T07:56:35.693Z,8.67
2023-05-06T07:59:08.127Z,10.00
2023-05-06T08:01:38.781Z,6.63
2023-05-06T08:04:08.609Z,10.20
2023-05-06T08:06:40.053Z,7.30
2023-05-06T08:09:17.034Z,11.63
2023-05-06T08:11:56.753Z,7.33
2023-05-06T08:14:27.016Z,8.00
2023-05-06T08:16:57.395Z,6.17
2023-05-06T08:19:29.749Z,5.37
2023-05-06T08:22:02.408Z,4.57
2023-05-06T08:24:33.956Z,6.77
2023-05-06T08:27:04.714Z,4.97
2023-05-06T08:29:35.979Z,6.17
2023-05-06T08:32:17.817Z,7.20
2023-05-06T08:34:49.794Z,4.40
2023-05-06T08:37:20.720Z,6.60
2023-05-06T08:39:51.108Z,6.00
2023-05-06T08:42:21.065Z,10.53
2023-05-06T08:44:53.891Z,5.23
2023-05-06T08:47:23.403Z,4.17
2023-05-06T08:50:01.412Z,11.60
2023-05-06T08:52:38.986Z,4.10
2023-05-06T08:55:08.256Z,7.20
2023-05-06T08:57:37.818Z,7.77
2023-05-06T09:00:10.956Z,5.80
2023-05-06T09:02:43.320Z,10.07
2023-05-06T09:05:14.051Z,4.30
2023-05-06T09:07:45.743Z,6.77
2023-05-06T09:10:19.171Z,4.80
2023-05-06T09:12:54.631Z,8.30
2023-05-06T09:15:41.574Z,4.23
2023-05-06T09:18:09.671Z,5.43
2023-05-06T09:20:41.199Z,5.80
2023-05-06T09:23:14.680Z,4.50
2023-05-06T09:25:44.411Z,4.63
2023-05-06T09:28:19.762Z,6.00
2023-05-06T09:30:50.606Z,7.20
2023-05-06T09:33:20.321Z,5.97
2023-05-06T09:35:53.468Z,6.27
2023-05-06T09:38:26.694Z,6.40
2023-05-06T09:40:54.670Z,5.40
2023-05-06T09:43:26.329Z,7.83
2023-05-06T09:45:59.834Z,5.77
2023-05-06T09:48:30.255Z,4.07
2023-05-06T09:51:01.681Z,9.80
2023-05-06T09:53:33.035Z,2.83
2023-05-06T09:56:06.827Z,6.67
2023-05-06T09:58:38.583Z,4.57
2023-05-06T10:01:19.229Z,4.70
2023-05-06T10:03:54.317Z,3.33
2023-05-06T10:06:25.603Z,3.40
2023-05-06T10:08:58.563Z,4.27
2023-05-06T10:11:31.880Z,3.73
2023-05-06T10:14:05.496Z,2.50
2023-05-06T10:16:38.448Z,2.93
2023-05-06T10:19:11.186Z,3.20
2023-05-06T10:21:44.657Z,2.90
2023-05-06T10:24:14.011Z,2.70
2023-05-06T10:26:42.440Z,4.03
2023-05-06T10:29:15.144Z,2.47
2023-05-06T10:31:49.661Z,3.17
2023-05-06T10:34:17.701Z,7.33
2023-05-06T10:36:54.451Z,2.27
2023-05-06T10:39:28.340Z,3.53
2023-05-06T10:41:57.608Z,4.10
2023-05-06T10:44:59.553Z,6.00
2023-05-06T10:47:28.756Z,1.63
2023-05-06T10:50:30.748Z,9.33
2023-05-06T10:53:02.068Z,2.90
2023-05-06T10:55:40.806Z,3.60
2023-05-06T10:58:16.046Z,2.50
2023-05-06T11:00:48.052Z,3.97
2023-05-06T11:03:18.938Z,8.93
2023-05-06T11:05:52.882Z,3.53
2023-05-06T11:08:27.245Z,3.87
2023-05-06T11:11:00.814Z,5.73
2023-05-06T11:13:29.762Z,2.87
2023-05-06T11:15:59.176Z,3.23
2023-05-06T11:18:43.314Z,3.23
2023-05-06T11:21:45.924Z,4.53
2023-05-06T11:24:15.928Z,2.97
2023-05-06T11:26:45.627Z,3.57
2023-05-06T11:29:17.103Z,2.70
2023-05-06T11:31:47.364Z,2.80
2023-05-06T11:34:20.757Z,2.27
2023-05-06T11:37:05.661Z,3.17
2023-05-06T11:39:41.270Z,2.20
2023-05-06T11:42:15.533Z,4.43
2023-05-06T11:44:57.457Z,2.77
2023-05-06T11:47:30.105Z,5.20
2023-05-06T11:50:06.448Z,9.93
2023-05-06T11:52:46.814Z,3.17
2023-05-06T11:55:17.687Z,3.80
2023-05-06T11:57:50.036Z,5.90
2023-05-06T12:00:19.021Z,5.60
2023-05-06T12:02:48.531Z,3.10
2023-05-06T12:05:20.925Z,3.03
2023-05-06T12:07:51.056Z,3.27
2023-05-06T12:10:25.233Z,3.90
2023-05-06T12:12:57.442Z,4.97
2023-05-06T12:15:32.640Z,3.20
2023-05-06T12:18:00.657Z,2.67
2023-05-06T12:20:35.135Z,3.17
2023-05-06T12:23:11.148Z,2.93
2023-05-06T12:25:42.000Z,3.47
2023-05-06T12:28:19.292Z,2.80
2023-05-06T12:30:56.372Z,3.10
2023-05-06T12:33:27.139Z,2.17
2023-05-06T12:36:09.537Z,5.50
2023-05-06T12:38:38.655Z,3.33
2023-05-06T12:41:10.286Z,5.80
2023-05-06T12:43:42.676Z,5.60
2023-05-06T12:46:14.780Z,5.77
2023-05-06T12:48:44.971Z,2.07
2023-05-06T12:51:21.320Z,1.93
2023-05-06T12:53:53.828Z,9.30
2023-05-06T12:56:21.906Z,2.15
2023-05-06T12:59:08.346Z,4.60
2023-05-06T13:01:39.188Z,3.78
2023-05-06T13:04:13.335Z,4.80
2023-05-06T13:06:42.944Z,2.72
2023-05-06T13:09:15.273Z,2.25
2023-05-06T13:11:46.440Z,5.00
2023-05-06T13:14:17.948Z,2.10
2023-05-06T13:16:50.800Z,3.03
2023-05-06T13:19:32.766Z,5.53
2023-05-06T13:22:08.597Z,2.40
2023-05-06T13:24:36.628Z,3.47
2023-05-06T13:27:21.638Z,2.50
2023-05-06T13:29:54.061Z,5.07
2023-05-06T13:32:25.604Z,3.47
2023-05-06T13:34:55.206Z,7.40
2023-05-06T13:37:27.078Z,2.60
2023-05-06T13:39:57.038Z,4.20
2023-05-06T13:42:27.755Z,6.23
2023-05-06T13:44:59.838Z,1.40
2023-05-06T13:47:32.861Z,2.63
2023-05-06T13:50:00.948Z,1.70
2023-05-06T13:52:31.824Z,5.80
2023-05-06T13:55:02.447Z,3.08
2023-05-06T13:57:32.374Z,5.28
2023-05-06T14:00:04.234Z,5.20
2023-05-06T14:02:32.435Z,2.40
2023-05-06T14:05:02.140Z,5.87
2023-05-06T14:07:34.342Z,1.67
2023-05-06T14:10:02.420Z,3.30
2023-05-06T14:12:30.985Z,5.63
2023-05-06T14:15:03.415Z,2.60
2023-05-06T14:17:32.922Z,2.33
2023-05-06T14:20:06.657Z,8.50
2023-05-06T14:22:34.706Z,3.70
2023-05-06T14:25:02.732Z,2.80
2023-05-06T14:27:31.094Z,1.93
2023-05-06T14:29:59.127Z,3.07
2023-05-06T14:32:31.562Z,2.23
2023-05-06T14:35:04.144Z,1.60
2023-05-06T14:37:37.584Z,3.03
2023-05-06T14:40:09.464Z,2.90
2023-05-06T14:42:42.740Z,6.63
2023-05-06T14:45:14.558Z,8.70
2023-05-06T14:47:42.682Z,3.87
2023-05-06T14:50:18.558Z,6.03
2023-05-06T14:52:49.644Z,2.33
2023-05-06T14:55:18.081Z,16.27
2023-05-06T14:57:46.132Z,5.20
2023-05-06T15:00:17.625Z,2.37
2023-05-06T15:02:51.199Z,4.27
2023-05-06T15:05:22.034Z,6.60
2023-05-06T15:07:49.992Z,1.77
2023-05-06T15:10:18.171Z,6.07
2023-05-06T15:12:46.116Z,2.43
2023-05-06T15:15:14.217Z,4.40
2023-05-06T15:17:42.440Z,12.03
2023-05-06T15:20:11.215Z,3.20
2023-05-06T15:22:40.676Z,10.10
2023-05-06T15:25:14.295Z,2.67
2023-05-06T15:27:47.523Z,1.70
2023-05-06T15:30:15.925Z,2.60
2023-05-06T15:32:43.900Z,4.37
2023-05-06T15:35:12.100Z,5.83
2023-05-06T15:37:41.650Z,13.90
2023-05-06T15:40:12.143Z,7.50
2023-05-06T15:42:40.313Z,2.80
2023-05-06T15:45:09.056Z,10.60
2023-05-06T15:47:37.021Z,4.10
2023-05-06T15:50:16.570Z,2.20
2023-05-06T15:52:50.401Z,3.67
2023-05-06T15:55:19.506Z,14.90
2023-05-06T15:57:47.477Z,5.83
2023-05-06T16:00:16.608Z,5.13
2023-05-06T16:02:44.656Z,3.27
2023-05-06T16:05:12.630Z,6.97
2023-05-06T16:07:40.576Z,2.30
2023-05-06T16:10:10.453Z,4.73
2023-05-06T16:12:38.975Z,4.50
2023-05-06T16:15:08.369Z,3.37
2023-05-06T16:17:37.613Z,13.73
2023-05-06T16:20:06.892Z,7.20
2023-05-06T16:22:34.839Z,4.23
2023-05-06T16:25:02.900Z,5.67
2023-05-06T16:27:32.190Z,5.10
2023-05-06T16:30:00.192Z,3.07
2023-05-06T16:32:28.138Z,6.23
2023-05-06T16:34:56.032Z,3.43
2023-05-06T16:37:23.931Z,5.40
2023-05-06T16:39:51.887Z,4.13
2023-05-06T16:42:19.792Z,1.90
2023-05-06T16:44:49.154Z,6.37
2023-05-06T16:47:17.151Z,2.40
2023-05-06T16:49:45.184Z,3.13
2023-05-06T16:52:13.112Z,3.37
2023-05-06T16:54:41.049Z,4.20
2023-05-06T16:57:09.008Z,9.47
2023-05-06T16:59:36.965Z,4.07
2023-05-06T17:02:06.329Z,4.00
2023-05-06T17:04:34.337Z,4.57
2023-05-06T17:07:02.319Z,3.47
2023-05-06T17:09:30.509Z,22.43
2023-05-06T17:11:58.427Z,21.63
2023-05-06T17:14:26.533Z,88.00
2023-05-06T17:16:54.501Z,30.40
2023-05-06T17:19:23.868Z,17.13
2023-05-06T17:21:51.773Z,13.47
2023-05-06T17:24:19.746Z,30.03
2023-05-06T17:26:48.160Z,33.47
2023-05-06T17:29:16.123Z,41.30
2023-05-06T17:31:44.029Z,22.90
2023-05-06T17:34:11.992Z,22.27
2023-05-06T17:36:41.342Z,19.73
2023-05-06T17:39:09.582Z,12.40
2023-05-06T17:41:37.582Z,18.73
2023-05-06T17:44:06.723Z,20.50
2023-05-06T17:46:34.744Z,19.87
2023-05-06T17:49:02.742Z,21.50
2023-05-06T17:51:30.718Z,15.80
2023-05-06T17:54:00.177Z,16.63
2023-05-06T17:56:28.155Z,12.67
2023-05-06T17:58:56.593Z,12.93
2023-05-06T18:01:24.653Z,5.77
2023-05-06T18:03:52.780Z,5.87
2023-05-06T18:06:20.794Z,12.60
2023-05-06T18:08:48.747Z,13.60
2023-05-06T18:11:18.407Z,10.73
2023-05-06T18:13:46.372Z,13.33
2023-05-06T18:16:14.329Z,5.00
2023-05-06T18:18:42.279Z,7.20
2023-05-06T18:21:10.218Z,3.90
2023-05-06T18:23:38.174Z,4.70
2023-05-06T18:26:06.908Z,14.03
2023-05-06T18:28:37.130Z,4.10
2023-05-06T18:31:05.145Z,9.80
2023-05-06T18:33:33.067Z,6.53
2023-05-06T18:36:00.990Z,6.00
2023-05-06T18:38:28.924Z,6.33
2023-05-06T18:40:56.836Z,16.00
2023-05-06T18:43:24.776Z,4.47
2023-05-06T18:45:54.722Z,4.80
2023-05-06T18:48:22.638Z,3.87
2023-05-06T18:50:50.999Z,7.47
2023-05-06T18:53:18.973Z,3.30
2023-05-06T18:55:46.899Z,6.13
2023-05-06T18:58:16.250Z,4.70
2023-05-06T19:00:44.668Z,7.60
2023-05-06T19:03:13.980Z,9.50
2023-05-06T19:05:41.901Z,7.50
2023-05-06T19:08:10.354Z,4.00
2023-05-06T19:10:38.294Z,6.00
2023-05-06T19:13:07.575Z,8.90
2023-05-06T19:15:35.864Z,8.37
2023-05-06T19:18:04.030Z,16.90
2023-05-06T19:20:33.355Z,9.93
2023-05-06T19:23:03.484Z,6.97
2023-05-06T19:25:31.463Z,7.07
2023-05-06T19:27:59.418Z,4.40
2023-05-06T19:30:27.702Z,8.60
2023-05-06T19:32:57.402Z,5.87
2023-05-06T19:35:25.528Z,21.93
2023-05-06T19:37:54.816Z,7.77
2023-05-06T19:40:23.038Z,8.93
2023-05-06T19:42:50.972Z,4.87
2023-05-06T19:45:19.491Z,6.70
2023-05-06T19:47:47.677Z,10.20
2023-05-06T19:50:15.736Z,5.67
2023-05-06T19:52:43.653Z,3.93
2023-05-06T19:55:13.120Z,13.43
2023-05-06T19:57:41.295Z,4.53
2023-05-06T20:00:11.873Z,4.53
2023-05-06T20:02:40.189Z,3.93
2023-05-06T20:05:08.913Z,3.90
2023-05-06T20:07:38.613Z,4.80
2023-05-06T20:10:07.614Z,14.80
2023-05-06T20:12:37.021Z,5.20
2023-05-06T20:15:05.627Z,4.83
2023-05-06T20:17:34.457Z,4.73
2023-05-06T20:20:09.483Z,6.00
2023-05-06T20:22:37.918Z,18.00
2023-05-06T20:25:09.952Z,10.70
2023-05-06T20:27:39.461Z,8.10
2023-05-06T20:30:09.695Z,3.80
2023-05-06T20:32:37.895Z,5.63
2023-05-06T20:35:06.793Z,6.33
2023-05-06T20:37:35.457Z,6.53
2023-05-06T20:40:04.848Z,7.37
2023-05-06T20:42:32.965Z,9.90
2023-05-06T20:45:02.290Z,7.67
2023-05-06T20:47:30.265Z,16.20
2023-05-06T20:49:58.322Z,4.40
2023-05-06T20:52:26.653Z,9.23
2023-05-06T20:54:54.750Z,5.10
2023-05-06T20:57:22.934Z,4.83
2023-05-06T20:59:52.497Z,6.67
2023-05-06T21:02:22.034Z,9.30
2023-05-06T21:04:50.110Z,4.27
2023-05-06T21:07:18.107Z,7.00
2023-05-06T21:09:46.406Z,6.50
2023-05-06T21:12:14.397Z,9.87
2023-05-06T21:14:42.334Z,5.83
2023-05-06T21:17:10.575Z,8.30
2023-05-06T21:19:40.042Z,5.37
2023-05-06T21:22:10.046Z,5.10
2023-05-06T21:24:37.952Z,8.00
2023-05-06T21:27:05.937Z,5.80
2023-05-06T21:29:33.854Z,8.30
2023-05-06T21:32:01.781Z,5.40
2023-05-06T21:34:29.726Z,16.53
2023-05-06T21:36:59.044Z,6.07
2023-05-06T21:39:26.971Z,7.20
2023-05-06T21:41:54.900Z,9.17
2023-05-06T21:44:22.808Z,5.33
2023-05-06T21:46:50.837Z,6.67
2023-05-06T21:49:19.536Z,7.67
2023-05-06T21:51:47.505Z,5.37
2023-05-06T21:54:17.397Z,5.77
2023-05-06T21:56:45.503Z,3.13
2023-05-06T21:59:13.433Z,13.50
2023-05-06T22:01:41.422Z,5.13
2023-05-06T22:04:13.064Z,5.93
2023-05-06T22:06:41.578Z,5.43
2023-05-06T22:09:10.008Z,5.00
2023-05-06T22:11:39.321Z,4.57
2023-05-06T22:14:07.296Z,11.93
2023-05-06T22:16:37.764Z,4.37
2023-05-06T22:19:06.722Z,6.10
2023-05-06T22:21:34.817Z,6.77
2023-05-06T22:24:02.768Z,7.33
2023-05-06T22:26:32.857Z,3.97
2023-05-06T22:29:02.203Z,3.67
2023-05-06T22:31:30.170Z,8.20
2023-05-06T22:34:03.461Z,27.67
2023-05-06T22:36:33.083Z,9.13
2023-05-06T22:39:01.079Z,10.93
2023-05-06T22:41:29.000Z,7.67
2023-05-06T22:43:57.298Z,11.77
2023-05-06T22:46:26.816Z,7.13
2023-05-06T22:48:54.854Z,3.57
2023-05-06T22:51:22.811Z,5.23
2023-05-06T22:53:50.760Z,5.00
2023-05-06T22:56:20.097Z,6.80
2023-05-06T22:58:48.060Z,5.40
2023-05-06T23:01:16.015Z,6.43
2023-05-06T23:03:45.429Z,6.00
2023-05-06T23:06:13.386Z,6.10
2023-05-06T23:09:00.951Z,4.40
2023-05-06T23:11:34.119Z,5.37
2023-05-06T23:14:09.378Z,4.87
2023-05-06T23:16:40.906Z,3.50
2023-05-06T23:19:10.777Z,5.83
2023-05-06T23:21:41.554Z,12.30
2023-05-06T23:24:17.146Z,7.00
2023-05-06T23:26:50.691Z,5.27
2023-05-06T23:29:35.838Z,6.57
2023-05-06T23:32:08.903Z,7.00
2023-05-06T23:34:42.722Z,3.60
2023-05-06T23:37:28.811Z,4.57
2023-05-06T23:39:58.608Z,5.13
2023-05-06T23:42:35.795Z,4.83
2023-05-06T23:45:05.952Z,3.90
2023-05-06T23:47:38.152Z,5.77
2023-05-06T23:50:14.675Z,7.83
2023-05-06T23:52:42.873Z,4.00
2023-05-06T23:55:15.331Z,10.17
2023-05-06T23:57:45.783Z,4.87
